sensor_id;sensor_type;location;lat;lon;timestamp;P1;durP1;ratioP1;P2;durP2;ratioP2
53040;SDS011;39326;42.650;23.248;2023-08-07T00:00:50;1.50;;;1.40;;
53040;SDS011;39326;42.650;23.248;2023-08-07T00:03:16;1.40;;;1.30;;
53040;SDS011;39326;42.650;23.248;2023-08-07T00:05:47;1.25;;;1.20;;
53040;SDS011;39326;42.650;23.248;2023-08-07T00:08:12;1.42;;;1.33;;
53040;SDS011;39326;42.650;23.248;2023-08-07T00:10:38;1.20;;;1.10;;
53040;SDS011;39326;42.650;23.248;2023-08-07T00:13:03;1.45;;;1.35;;
53040;SDS011;39326;42.650;23.248;2023-08-07T00:15:29;1.55;;;1.38;;
53040;SDS011;39326;42.650;23.248;2023-08-07T00:17:54;1.27;;;1.17;;
53040;SDS011;39326;42.650;23.248;2023-08-07T00:20:20;1.40;;;1.20;;
53040;SDS011;39326;42.650;23.248;2023-08-07T00:22:45;1.30;;;1.20;;
53040;SDS011;39326;42.650;23.248;2023-08-07T00:25:11;1.70;;;1.00;;
53040;SDS011;39326;42.650;23.248;2023-08-07T00:27:36;1.23;;;1.13;;
53040;SDS011;39326;42.650;23.248;2023-08-07T00:30:01;1.40;;;1.30;;
53040;SDS011;39326;42.650;23.248;2023-08-07T00:32:27;1.30;;;1.20;;
53040;SDS011;39326;42.650;23.248;2023-08-07T00:34:52;1.10;;;1.10;;
53040;SDS011;39326;42.650;23.248;2023-08-07T00:37:18;1.20;;;1.10;;
53040;SDS011;39326;42.650;23.248;2023-08-07T00:39:43;1.20;;;1.10;;
53040;SDS011;39326;42.650;23.248;2023-08-07T00:42:08;1.30;;;1.20;;
53040;SDS011;39326;42.650;23.248;2023-08-07T00:44:34;0.98;;;0.98;;
53040;SDS011;39326;42.650;23.248;2023-08-07T00:46:59;1.30;;;1.20;;
53040;SDS011;39326;42.650;23.248;2023-08-07T00:49:25;1.30;;;1.17;;
53040;SDS011;39326;42.650;23.248;2023-08-07T00:51:51;1.50;;;1.40;;
53040;SDS011;39326;42.650;23.248;2023-08-07T00:54:18;1.75;;;1.60;;
53040;SDS011;39326;42.650;23.248;2023-08-07T00:56:45;1.58;;;1.48;;
53040;SDS011;39326;42.650;23.248;2023-08-07T00:59:12;1.60;;;1.50;;
53040;SDS011;39326;42.650;23.248;2023-08-07T01:01:38;1.50;;;1.40;;
53040;SDS011;39326;42.650;23.248;2023-08-07T01:04:04;1.53;;;1.43;;
53040;SDS011;39326;42.650;23.248;2023-08-07T01:06:29;1.90;;;1.30;;
53040;SDS011;39326;42.650;23.248;2023-08-07T01:08:54;1.30;;;1.20;;
53040;SDS011;39326;42.650;23.248;2023-08-07T01:14:37;1.30;;;1.20;;
53040;SDS011;39326;42.650;23.248;2023-08-07T01:17:13;1.50;;;1.40;;
53040;SDS011;39326;42.650;23.248;2023-08-07T01:19:40;1.50;;;1.40;;
53040;SDS011;39326;42.650;23.248;2023-08-07T01:22:09;1.50;;;1.40;;
53040;SDS011;39326;42.650;23.248;2023-08-07T01:24:39;1.37;;;1.27;;
53040;SDS011;39326;42.650;23.248;2023-08-07T01:32:34;1.53;;;1.43;;
53040;SDS011;39326;42.650;23.248;2023-08-07T01:35:18;1.67;;;1.58;;
53040;SDS011;39326;42.650;23.248;2023-08-07T01:37:50;1.50;;;1.40;;
53040;SDS011;39326;42.650;23.248;2023-08-07T01:40:18;1.57;;;1.47;;
53040;SDS011;39326;42.650;23.248;2023-08-07T01:42:46;1.87;;;1.77;;
53040;SDS011;39326;42.650;23.248;2023-08-07T01:45:12;1.50;;;1.40;;
53040;SDS011;39326;42.650;23.248;2023-08-07T01:47:38;1.60;;;1.50;;
53040;SDS011;39326;42.650;23.248;2023-08-07T01:50:03;1.70;;;1.60;;
53040;SDS011;39326;42.650;23.248;2023-08-07T01:52:29;1.73;;;1.63;;
53040;SDS011;39326;42.650;23.248;2023-08-07T01:54:55;1.57;;;1.47;;
53040;SDS011;39326;42.650;23.248;2023-08-07T01:57:20;1.85;;;1.75;;
53040;SDS011;39326;42.650;23.248;2023-08-07T01:59:46;1.97;;;1.73;;
53040;SDS011;39326;42.650;23.248;2023-08-07T02:02:11;1.90;;;1.80;;
53040;SDS011;39326;42.650;23.248;2023-08-07T02:04:36;1.93;;;1.83;;
53040;SDS011;39326;42.650;23.248;2023-08-07T02:07:02;1.57;;;1.47;;
53040;SDS011;39326;42.650;23.248;2023-08-07T02:09:27;1.67;;;1.53;;
53040;SDS011;39326;42.650;23.248;2023-08-07T02:11:53;1.97;;;1.70;;
53040;SDS011;39326;42.650;23.248;2023-08-07T02:14:18;1.97;;;1.87;;
53040;SDS011;39326;42.650;23.248;2023-08-07T02:16:44;1.70;;;1.60;;
53040;SDS011;39326;42.650;23.248;2023-08-07T02:19:09;1.80;;;1.70;;
53040;SDS011;39326;42.650;23.248;2023-08-07T02:21:35;1.83;;;1.73;;
53040;SDS011;39326;42.650;23.248;2023-08-07T02:24:00;1.60;;;1.50;;
53040;SDS011;39326;42.650;23.248;2023-08-07T02:26:25;1.90;;;1.70;;
53040;SDS011;39326;42.650;23.248;2023-08-07T02:28:51;1.60;;;1.50;;
53040;SDS011;39326;42.650;23.248;2023-08-07T02:31:16;1.63;;;1.53;;
53040;SDS011;39326;42.650;23.248;2023-08-07T02:33:41;1.80;;;1.70;;
53040;SDS011;39326;42.650;23.248;2023-08-07T02:36:07;2.10;;;1.90;;
53040;SDS011;39326;42.650;23.248;2023-08-07T02:38:33;1.70;;;1.60;;
53040;SDS011;39326;42.650;23.248;2023-08-07T02:40:58;1.87;;;1.77;;
53040;SDS011;39326;42.650;23.248;2023-08-07T02:43:24;1.65;;;1.55;;
53040;SDS011;39326;42.650;23.248;2023-08-07T02:45:49;2.10;;;1.90;;
53040;SDS011;39326;42.650;23.248;2023-08-07T02:48:14;1.90;;;1.80;;
53040;SDS011;39326;42.650;23.248;2023-08-07T02:50:40;2.00;;;1.90;;
53040;SDS011;39326;42.650;23.248;2023-08-07T02:53:05;2.27;;;1.90;;
53040;SDS011;39326;42.650;23.248;2023-08-07T02:55:31;2.00;;;1.90;;
53040;SDS011;39326;42.650;23.248;2023-08-07T02:57:56;2.10;;;2.00;;
53040;SDS011;39326;42.650;23.248;2023-08-07T03:00:21;1.87;;;1.77;;
53040;SDS011;39326;42.650;23.248;2023-08-07T03:02:47;1.80;;;1.70;;
53040;SDS011;39326;42.650;23.248;2023-08-07T03:05:12;1.67;;;1.57;;
53040;SDS011;39326;42.650;23.248;2023-08-07T03:07:38;1.97;;;1.87;;
53040;SDS011;39326;42.650;23.248;2023-08-07T03:10:03;2.00;;;1.90;;
53040;SDS011;39326;42.650;23.248;2023-08-07T03:12:29;1.80;;;1.70;;
53040;SDS011;39326;42.650;23.248;2023-08-07T03:14:54;2.17;;;1.93;;
53040;SDS011;39326;42.650;23.248;2023-08-07T03:17:20;2.03;;;1.93;;
53040;SDS011;39326;42.650;23.248;2023-08-07T03:19:45;2.13;;;1.97;;
53040;SDS011;39326;42.650;23.248;2023-08-07T03:22:11;2.43;;;2.23;;
53040;SDS011;39326;42.650;23.248;2023-08-07T03:24:37;2.33;;;2.10;;
53040;SDS011;39326;42.650;23.248;2023-08-07T03:27:02;2.60;;;2.40;;
53040;SDS011;39326;42.650;23.248;2023-08-07T03:29:28;2.37;;;2.20;;
53040;SDS011;39326;42.650;23.248;2023-08-07T03:31:53;2.40;;;2.30;;
53040;SDS011;39326;42.650;23.248;2023-08-07T03:34:19;2.90;;;2.70;;
53040;SDS011;39326;42.650;23.248;2023-08-07T03:36:44;2.90;;;2.70;;
53040;SDS011;39326;42.650;23.248;2023-08-07T03:39:10;2.53;;;2.33;;
53040;SDS011;39326;42.650;23.248;2023-08-07T03:41:37;2.70;;;2.50;;
53040;SDS011;39326;42.650;23.248;2023-08-07T03:44:02;2.70;;;2.17;;
53040;SDS011;39326;42.650;23.248;2023-08-07T03:46:28;2.20;;;2.10;;
53040;SDS011;39326;42.650;23.248;2023-08-07T03:48:53;2.40;;;2.30;;
53040;SDS011;39326;42.650;23.248;2023-08-07T03:51:18;2.43;;;2.23;;
53040;SDS011;39326;42.650;23.248;2023-08-07T03:53:44;2.90;;;2.70;;
53040;SDS011;39326;42.650;23.248;2023-08-07T03:56:09;2.83;;;2.70;;
53040;SDS011;39326;42.650;23.248;2023-08-07T03:58:35;2.70;;;2.50;;
53040;SDS011;39326;42.650;23.248;2023-08-07T04:01:00;2.80;;;2.60;;
53040;SDS011;39326;42.650;23.248;2023-08-07T04:03:26;2.73;;;2.53;;
53040;SDS011;39326;42.650;23.248;2023-08-07T04:05:52;2.50;;;2.40;;
53040;SDS011;39326;42.650;23.248;2023-08-07T04:08:18;2.80;;;2.60;;
53040;SDS011;39326;42.650;23.248;2023-08-07T04:10:44;2.53;;;2.30;;
53040;SDS011;39326;42.650;23.248;2023-08-07T04:13:10;3.03;;;2.83;;
53040;SDS011;39326;42.650;23.248;2023-08-07T04:15:35;3.00;;;2.70;;
53040;SDS011;39326;42.650;23.248;2023-08-07T04:18:00;2.97;;;2.77;;
53040;SDS011;39326;42.650;23.248;2023-08-07T04:20:26;2.90;;;2.70;;
53040;SDS011;39326;42.650;23.248;2023-08-07T04:22:51;2.70;;;2.50;;
53040;SDS011;39326;42.650;23.248;2023-08-07T04:25:17;2.87;;;2.73;;
53040;SDS011;39326;42.650;23.248;2023-08-07T04:27:42;3.37;;;3.17;;
53040;SDS011;39326;42.650;23.248;2023-08-07T04:30:08;2.73;;;2.53;;
53040;SDS011;39326;42.650;23.248;2023-08-07T04:32:33;2.97;;;2.70;;
53040;SDS011;39326;42.650;23.248;2023-08-07T04:34:59;2.60;;;2.50;;
53040;SDS011;39326;42.650;23.248;2023-08-07T04:37:24;2.80;;;2.60;;
53040;SDS011;39326;42.650;23.248;2023-08-07T04:39:50;3.27;;;3.07;;
53040;SDS011;39326;42.650;23.248;2023-08-07T04:42:15;2.87;;;2.67;;
53040;SDS011;39326;42.650;23.248;2023-08-07T04:44:41;2.90;;;2.73;;
53040;SDS011;39326;42.650;23.248;2023-08-07T04:47:06;3.30;;;3.00;;
53040;SDS011;39326;42.650;23.248;2023-08-07T04:49:31;2.70;;;2.50;;
53040;SDS011;39326;42.650;23.248;2023-08-07T04:51:57;3.00;;;2.80;;
53040;SDS011;39326;42.650;23.248;2023-08-07T04:54:22;2.78;;;2.53;;
53040;SDS011;39326;42.650;23.248;2023-08-07T04:56:48;3.40;;;3.10;;
53040;SDS011;39326;42.650;23.248;2023-08-07T04:59:13;3.00;;;2.80;;
53040;SDS011;39326;42.650;23.248;2023-08-07T05:01:38;3.58;;;3.28;;
53040;SDS011;39326;42.650;23.248;2023-08-07T05:04:04;3.13;;;2.93;;
53040;SDS011;39326;42.650;23.248;2023-08-07T05:06:30;2.97;;;2.77;;
53040;SDS011;39326;42.650;23.248;2023-08-07T05:08:56;3.33;;;3.03;;
53040;SDS011;39326;42.650;23.248;2023-08-07T05:11:21;3.13;;;2.93;;
53040;SDS011;39326;42.650;23.248;2023-08-07T05:13:47;3.10;;;2.90;;
53040;SDS011;39326;42.650;23.248;2023-08-07T05:16:12;3.10;;;2.90;;
53040;SDS011;39326;42.650;23.248;2023-08-07T05:18:37;3.10;;;2.90;;
53040;SDS011;39326;42.650;23.248;2023-08-07T05:21:03;3.20;;;3.00;;
53040;SDS011;39326;42.650;23.248;2023-08-07T05:23:28;2.75;;;2.55;;
53040;SDS011;39326;42.650;23.248;2023-08-07T05:25:54;3.07;;;2.87;;
53040;SDS011;39326;42.650;23.248;2023-08-07T05:28:19;2.67;;;2.50;;
53040;SDS011;39326;42.650;23.248;2023-08-07T05:30:44;2.53;;;2.43;;
53040;SDS011;39326;42.650;23.248;2023-08-07T05:33:10;2.83;;;2.53;;
53040;SDS011;39326;42.650;23.248;2023-08-07T05:35:37;3.33;;;2.80;;
53040;SDS011;39326;42.650;23.248;2023-08-07T05:38:03;2.47;;;2.37;;
53040;SDS011;39326;42.650;23.248;2023-08-07T05:40:29;3.00;;;2.80;;
53040;SDS011;39326;42.650;23.248;2023-08-07T05:42:54;2.97;;;2.73;;
53040;SDS011;39326;42.650;23.248;2023-08-07T05:45:20;2.65;;;2.45;;
53040;SDS011;39326;42.650;23.248;2023-08-07T05:47:45;2.27;;;2.17;;
53040;SDS011;39326;42.650;23.248;2023-08-07T05:50:11;2.67;;;2.50;;
53040;SDS011;39326;42.650;23.248;2023-08-07T05:52:36;2.72;;;2.53;;
53040;SDS011;39326;42.650;23.248;2023-08-07T05:55:02;2.70;;;2.50;;
53040;SDS011;39326;42.650;23.248;2023-08-07T05:57:29;2.75;;;2.65;;
53040;SDS011;39326;42.650;23.248;2023-08-07T05:59:54;2.73;;;2.53;;
53040;SDS011;39326;42.650;23.248;2023-08-07T06:02:19;2.97;;;2.73;;
53040;SDS011;39326;42.650;23.248;2023-08-07T06:04:45;2.92;;;2.67;;
53040;SDS011;39326;42.650;23.248;2023-08-07T06:07:10;2.83;;;2.70;;
53040;SDS011;39326;42.650;23.248;2023-08-07T06:09:36;2.80;;;2.70;;
53040;SDS011;39326;42.650;23.248;2023-08-07T06:12:01;2.80;;;2.60;;
53040;SDS011;39326;42.650;23.248;2023-08-07T06:14:27;2.63;;;2.42;;
53040;SDS011;39326;42.650;23.248;2023-08-07T06:16:53;2.87;;;2.67;;
53040;SDS011;39326;42.650;23.248;2023-08-07T06:19:19;3.60;;;2.30;;
53040;SDS011;39326;42.650;23.248;2023-08-07T06:21:47;2.40;;;2.30;;
53040;SDS011;39326;42.650;23.248;2023-08-07T06:24:12;2.05;;;1.95;;
53040;SDS011;39326;42.650;23.248;2023-08-07T06:26:38;2.47;;;2.28;;
53040;SDS011;39326;42.650;23.248;2023-08-07T06:29:03;3.55;;;2.67;;
53040;SDS011;39326;42.650;23.248;2023-08-07T06:31:29;2.50;;;1.95;;
53040;SDS011;39326;42.650;23.248;2023-08-07T06:33:54;2.13;;;2.03;;
53040;SDS011;39326;42.650;23.248;2023-08-07T06:36:20;3.15;;;2.25;;
53040;SDS011;39326;42.650;23.248;2023-08-07T06:38:45;2.85;;;2.35;;
53040;SDS011;39326;42.650;23.248;2023-08-07T06:41:12;2.03;;;1.92;;
53040;SDS011;39326;42.650;23.248;2023-08-07T06:43:37;2.00;;;1.90;;
53040;SDS011;39326;42.650;23.248;2023-08-07T06:46:03;2.15;;;2.03;;
53040;SDS011;39326;42.650;23.248;2023-08-07T06:48:28;2.75;;;1.60;;
53040;SDS011;39326;42.650;23.248;2023-08-07T06:50:53;2.00;;;1.80;;
53040;SDS011;39326;42.650;23.248;2023-08-07T06:53:19;1.40;;;1.30;;
53040;SDS011;39326;42.650;23.248;2023-08-07T06:55:44;1.65;;;1.40;;
53040;SDS011;39326;42.650;23.248;2023-08-07T06:58:10;2.28;;;1.83;;
53040;SDS011;39326;42.650;23.248;2023-08-07T07:00:36;1.42;;;1.33;;
53040;SDS011;39326;42.650;23.248;2023-08-07T07:03:02;1.50;;;1.40;;
53040;SDS011;39326;42.650;23.248;2023-08-07T07:05:28;1.60;;;1.50;;
53040;SDS011;39326;42.650;23.248;2023-08-07T07:07:55;2.25;;;1.85;;
53040;SDS011;39326;42.650;23.248;2023-08-07T07:10:20;1.65;;;1.55;;
53040;SDS011;39326;42.650;23.248;2023-08-07T07:12:46;1.50;;;1.40;;
53040;SDS011;39326;42.650;23.248;2023-08-07T07:15:11;1.52;;;1.42;;
53040;SDS011;39326;42.650;23.248;2023-08-07T07:17:37;1.60;;;1.50;;
53040;SDS011;39326;42.650;23.248;2023-08-07T07:20:02;1.92;;;1.83;;
53040;SDS011;39326;42.650;23.248;2023-08-07T07:22:28;1.60;;;1.50;;
53040;SDS011;39326;42.650;23.248;2023-08-07T07:24:54;1.88;;;1.70;;
53040;SDS011;39326;42.650;23.248;2023-08-07T07:27:19;1.52;;;1.42;;
53040;SDS011;39326;42.650;23.248;2023-08-07T07:29:45;1.40;;;1.30;;
53040;SDS011;39326;42.650;23.248;2023-08-07T07:32:10;1.50;;;1.35;;
53040;SDS011;39326;42.650;23.248;2023-08-07T07:34:35;1.27;;;1.17;;
53040;SDS011;39326;42.650;23.248;2023-08-07T07:37:01;1.23;;;1.20;;
53040;SDS011;39326;42.650;23.248;2023-08-07T07:39:26;1.15;;;1.05;;
53040;SDS011;39326;42.650;23.248;2023-08-07T07:41:52;1.40;;;1.30;;
53040;SDS011;39326;42.650;23.248;2023-08-07T07:44:17;1.13;;;1.10;;
53040;SDS011;39326;42.650;23.248;2023-08-07T07:46:43;2.13;;;1.30;;
53040;SDS011;39326;42.650;23.248;2023-08-07T07:49:08;1.40;;;1.30;;
53040;SDS011;39326;42.650;23.248;2023-08-07T07:51:34;1.30;;;1.20;;
53040;SDS011;39326;42.650;23.248;2023-08-07T07:54:02;1.25;;;1.15;;
53040;SDS011;39326;42.650;23.248;2023-08-07T07:56:29;1.30;;;1.20;;
53040;SDS011;39326;42.650;23.248;2023-08-07T07:58:55;1.50;;;1.40;;
53040;SDS011;39326;42.650;23.248;2023-08-07T08:01:21;1.58;;;1.48;;
53040;SDS011;39326;42.650;23.248;2023-08-07T08:03:47;1.40;;;1.30;;
53040;SDS011;39326;42.650;23.248;2023-08-07T08:06:14;1.50;;;1.40;;
53040;SDS011;39326;42.650;23.248;2023-08-07T08:08:40;1.48;;;1.30;;
53040;SDS011;39326;42.650;23.248;2023-08-07T08:11:07;1.20;;;1.10;;
53040;SDS011;39326;42.650;23.248;2023-08-07T08:13:33;1.58;;;1.10;;
53040;SDS011;39326;42.650;23.248;2023-08-07T08:16:00;1.20;;;1.10;;
53040;SDS011;39326;42.650;23.248;2023-08-07T08:18:26;1.90;;;1.50;;
53040;SDS011;39326;42.650;23.248;2023-08-07T08:20:53;1.80;;;1.70;;
53040;SDS011;39326;42.650;23.248;2023-08-07T08:23:19;1.30;;;1.20;;
53040;SDS011;39326;42.650;23.248;2023-08-07T08:25:45;1.67;;;1.42;;
53040;SDS011;39326;42.650;23.248;2023-08-07T08:28:11;1.88;;;1.10;;
53040;SDS011;39326;42.650;23.248;2023-08-07T08:30:37;1.05;;;1.05;;
53040;SDS011;39326;42.650;23.248;2023-08-07T08:33:03;1.48;;;1.38;;
53040;SDS011;39326;42.650;23.248;2023-08-07T08:35:31;1.20;;;1.10;;
53040;SDS011;39326;42.650;23.248;2023-08-07T08:37:57;2.05;;;1.15;;
53040;SDS011;39326;42.650;23.248;2023-08-07T08:40:23;1.30;;;1.10;;
53040;SDS011;39326;42.650;23.248;2023-08-07T08:42:50;2.38;;;1.35;;
53040;SDS011;39326;42.650;23.248;2023-08-07T08:45:19;1.98;;;1.40;;
53040;SDS011;39326;42.650;23.248;2023-08-07T08:47:47;1.30;;;1.20;;
53040;SDS011;39326;42.650;23.248;2023-08-07T08:50:16;2.33;;;1.30;;
53040;SDS011;39326;42.650;23.248;2023-08-07T08:52:43;1.40;;;1.30;;
53040;SDS011;39326;42.650;23.248;2023-08-07T08:55:10;2.17;;;1.25;;
53040;SDS011;39326;42.650;23.248;2023-08-07T08:57:38;2.15;;;1.20;;
53040;SDS011;39326;42.650;23.248;2023-08-07T09:00:05;1.27;;;1.17;;
53040;SDS011;39326;42.650;23.248;2023-08-07T09:02:43;1.63;;;1.40;;
53040;SDS011;39326;42.650;23.248;2023-08-07T09:05:16;1.67;;;1.58;;
53040;SDS011;39326;42.650;23.248;2023-08-07T09:07:43;2.42;;;1.33;;
53040;SDS011;39326;42.650;23.248;2023-08-07T09:10:12;1.50;;;1.40;;
53040;SDS011;39326;42.650;23.248;2023-08-07T09:12:53;2.85;;;1.60;;
53040;SDS011;39326;42.650;23.248;2023-08-07T09:15:25;1.77;;;1.48;;
53040;SDS011;39326;42.650;23.248;2023-08-07T09:17:55;1.67;;;1.40;;
53040;SDS011;39326;42.650;23.248;2023-08-07T09:20:21;4.07;;;1.75;;
53040;SDS011;39326;42.650;23.248;2023-08-07T09:22:48;1.52;;;1.40;;
53040;SDS011;39326;42.650;23.248;2023-08-07T09:25:14;1.50;;;1.35;;
53040;SDS011;39326;42.650;23.248;2023-08-07T09:27:51;2.28;;;2.08;;
53040;SDS011;39326;42.650;23.248;2023-08-07T09:30:17;2.95;;;1.73;;
53040;SDS011;39326;42.650;23.248;2023-08-07T09:32:43;2.00;;;1.75;;
53040;SDS011;39326;42.650;23.248;2023-08-07T09:35:13;3.17;;;1.60;;
53040;SDS011;39326;42.650;23.248;2023-08-07T09:37:39;2.22;;;1.88;;
53040;SDS011;39326;42.650;23.248;2023-08-07T09:40:04;3.60;;;1.80;;
53040;SDS011;39326;42.650;23.248;2023-08-07T09:42:31;3.53;;;1.65;;
53040;SDS011;39326;42.650;23.248;2023-08-07T09:44:59;1.98;;;1.42;;
53040;SDS011;39326;42.650;23.248;2023-08-07T09:47:25;2.45;;;1.27;;
53040;SDS011;39326;42.650;23.248;2023-08-07T09:49:53;2.85;;;1.45;;
53040;SDS011;39326;42.650;23.248;2023-08-07T09:52:21;1.63;;;1.52;;
53040;SDS011;39326;42.650;23.248;2023-08-07T09:54:47;1.85;;;1.63;;
53040;SDS011;39326;42.650;23.248;2023-08-07T09:57:13;1.73;;;1.63;;
53040;SDS011;39326;42.650;23.248;2023-08-07T09:59:39;1.40;;;1.30;;
53040;SDS011;39326;42.650;23.248;2023-08-07T10:02:06;2.30;;;1.50;;
53040;SDS011;39326;42.650;23.248;2023-08-07T10:04:33;2.95;;;1.52;;
53040;SDS011;39326;42.650;23.248;2023-08-07T10:07:01;1.50;;;1.40;;
53040;SDS011;39326;42.650;23.248;2023-08-07T10:09:27;1.42;;;1.33;;
53040;SDS011;39326;42.650;23.248;2023-08-07T10:11:53;1.90;;;1.30;;
53040;SDS011;39326;42.650;23.248;2023-08-07T10:14:20;1.55;;;1.45;;
53040;SDS011;39326;42.650;23.248;2023-08-07T10:16:48;1.70;;;1.30;;
53040;SDS011;39326;42.650;23.248;2023-08-07T10:19:14;1.42;;;1.33;;
53040;SDS011;39326;42.650;23.248;2023-08-07T10:21:40;2.15;;;1.20;;
53040;SDS011;39326;42.650;23.248;2023-08-07T10:24:09;1.98;;;1.10;;
53040;SDS011;39326;42.650;23.248;2023-08-07T10:26:37;2.47;;;1.20;;
53040;SDS011;39326;42.650;23.248;2023-08-07T10:29:07;1.23;;;1.10;;
53040;SDS011;39326;42.650;23.248;2023-08-07T10:31:38;1.48;;;1.38;;
53040;SDS011;39326;42.650;23.248;2023-08-07T10:34:07;1.52;;;1.10;;
53040;SDS011;39326;42.650;23.248;2023-08-07T10:36:33;1.58;;;1.48;;
53040;SDS011;39326;42.650;23.248;2023-08-07T10:39:06;1.10;;;1.10;;
53040;SDS011;39326;42.650;23.248;2023-08-07T10:41:40;1.77;;;1.00;;
53040;SDS011;39326;42.650;23.248;2023-08-07T10:44:19;2.00;;;1.40;;
53040;SDS011;39326;42.650;23.248;2023-08-07T10:46:51;1.48;;;1.30;;
53040;SDS011;39326;42.650;23.248;2023-08-07T10:49:31;1.25;;;1.15;;
53040;SDS011;39326;42.650;23.248;2023-08-07T10:52:07;1.63;;;1.02;;
53040;SDS011;39326;42.650;23.248;2023-08-07T10:54:41;1.20;;;1.10;;
53040;SDS011;39326;42.650;23.248;2023-08-07T10:57:11;1.38;;;1.27;;
53040;SDS011;39326;42.650;23.248;2023-08-07T10:59:43;2.35;;;1.10;;
53040;SDS011;39326;42.650;23.248;2023-08-07T11:02:21;1.67;;;1.23;;
53040;SDS011;39326;42.650;23.248;2023-08-07T11:04:53;1.35;;;1.25;;
53040;SDS011;39326;42.650;23.248;2023-08-07T11:07:26;1.67;;;1.33;;
53040;SDS011;39326;42.650;23.248;2023-08-07T11:09:55;1.40;;;1.20;;
53040;SDS011;39326;42.650;23.248;2023-08-07T11:12:28;2.63;;;1.20;;
53040;SDS011;39326;42.650;23.248;2023-08-07T11:14:54;1.30;;;1.17;;
53040;SDS011;39326;42.650;23.248;2023-08-07T11:17:27;1.30;;;1.20;;
53040;SDS011;39326;42.650;23.248;2023-08-07T11:19:54;1.23;;;1.13;;
53040;SDS011;39326;42.650;23.248;2023-08-07T11:22:21;1.25;;;1.00;;
53040;SDS011;39326;42.650;23.248;2023-08-07T11:24:47;1.50;;;1.27;;
53040;SDS011;39326;42.650;23.248;2023-08-07T11:27:14;1.30;;;1.20;;
53040;SDS011;39326;42.650;23.248;2023-08-07T11:29:40;2.08;;;1.38;;
53040;SDS011;39326;42.650;23.248;2023-08-07T11:32:06;1.30;;;1.20;;
53040;SDS011;39326;42.650;23.248;2023-08-07T11:34:33;1.88;;;1.52;;
53040;SDS011;39326;42.650;23.248;2023-08-07T11:36:59;2.17;;;1.20;;
53040;SDS011;39326;42.650;23.248;2023-08-07T11:39:26;2.30;;;1.42;;
53040;SDS011;39326;42.650;23.248;2023-08-07T11:41:52;1.40;;;1.30;;
53040;SDS011;39326;42.650;23.248;2023-08-07T11:44:18;1.25;;;1.23;;
53040;SDS011;39326;42.650;23.248;2023-08-07T11:46:44;1.65;;;1.45;;
53040;SDS011;39326;42.650;23.248;2023-08-07T11:49:09;1.38;;;1.27;;
53040;SDS011;39326;42.650;23.248;2023-08-07T11:51:36;2.40;;;1.23;;
53040;SDS011;39326;42.650;23.248;2023-08-07T11:54:02;1.65;;;1.35;;
53040;SDS011;39326;42.650;23.248;2023-08-07T11:56:28;1.60;;;1.50;;
53040;SDS011;39326;42.650;23.248;2023-08-07T11:58:54;1.33;;;1.23;;
53040;SDS011;39326;42.650;23.248;2023-08-07T12:01:22;1.30;;;1.20;;
53040;SDS011;39326;42.650;23.248;2023-08-07T12:03:53;1.20;;;1.10;;
53040;SDS011;39326;42.650;23.248;2023-08-07T12:06:25;1.38;;;1.20;;
53040;SDS011;39326;42.650;23.248;2023-08-07T12:08:53;1.40;;;1.30;;
53040;SDS011;39326;42.650;23.248;2023-08-07T12:11:20;1.92;;;1.67;;
53040;SDS011;39326;42.650;23.248;2023-08-07T12:13:46;1.90;;;1.40;;
53040;SDS011;39326;42.650;23.248;2023-08-07T12:16:13;1.38;;;1.27;;
53040;SDS011;39326;42.650;23.248;2023-08-07T12:18:50;1.50;;;1.40;;
53040;SDS011;39326;42.650;23.248;2023-08-07T12:21:17;1.55;;;1.45;;
53040;SDS011;39326;42.650;23.248;2023-08-07T12:23:49;2.95;;;1.60;;
53040;SDS011;39326;42.650;23.248;2023-08-07T12:26:16;1.52;;;1.38;;
53040;SDS011;39326;42.650;23.248;2023-08-07T12:28:42;1.67;;;1.52;;
53040;SDS011;39326;42.650;23.248;2023-08-07T12:31:08;2.45;;;1.58;;
53040;SDS011;39326;42.650;23.248;2023-08-07T12:33:34;1.40;;;1.30;;
53040;SDS011;39326;42.650;23.248;2023-08-07T12:36:01;1.10;;;1.10;;
53040;SDS011;39326;42.650;23.248;2023-08-07T12:38:27;1.50;;;1.40;;
53040;SDS011;39326;42.650;23.248;2023-08-07T12:40:53;1.80;;;1.70;;
53040;SDS011;39326;42.650;23.248;2023-08-07T12:43:19;2.22;;;1.70;;
53040;SDS011;39326;42.650;23.248;2023-08-07T12:45:45;1.88;;;1.38;;
53040;SDS011;39326;42.650;23.248;2023-08-07T12:48:11;1.98;;;1.48;;
53040;SDS011;39326;42.650;23.248;2023-08-07T12:50:37;1.95;;;1.48;;
53040;SDS011;39326;42.650;23.248;2023-08-07T12:53:04;1.90;;;1.65;;
53040;SDS011;39326;42.650;23.248;2023-08-07T12:55:31;2.35;;;1.50;;
53040;SDS011;39326;42.650;23.248;2023-08-07T12:57:57;1.50;;;1.40;;
53040;SDS011;39326;42.650;23.248;2023-08-07T13:00:24;1.67;;;1.40;;
53040;SDS011;39326;42.650;23.248;2023-08-07T13:02:51;1.50;;;1.40;;
53040;SDS011;39326;42.650;23.248;2023-08-07T13:05:17;2.28;;;1.60;;
53040;SDS011;39326;42.650;23.248;2023-08-07T13:07:47;1.48;;;1.38;;
53040;SDS011;39326;42.650;23.248;2023-08-07T13:10:14;2.40;;;1.63;;
53040;SDS011;39326;42.650;23.248;2023-08-07T13:12:42;2.25;;;1.67;;
53040;SDS011;39326;42.650;23.248;2023-08-07T13:15:09;4.47;;;2.15;;
53040;SDS011;39326;42.650;23.248;2023-08-07T13:17:38;2.22;;;1.67;;
53040;SDS011;39326;42.650;23.248;2023-08-07T13:20:05;5.18;;;1.85;;
53040;SDS011;39326;42.650;23.248;2023-08-07T13:22:38;3.72;;;1.63;;
53040;SDS011;39326;42.650;23.248;2023-08-07T13:25:05;2.58;;;1.60;;
53040;SDS011;39326;42.650;23.248;2023-08-07T13:27:32;2.00;;;1.40;;
53040;SDS011;39326;42.650;23.248;2023-08-07T13:29:58;1.58;;;1.40;;
53040;SDS011;39326;42.650;23.248;2023-08-07T13:32:25;1.58;;;1.48;;
53040;SDS011;39326;42.650;23.248;2023-08-07T13:34:51;2.70;;;1.67;;
53040;SDS011;39326;42.650;23.248;2023-08-07T13:37:17;2.20;;;1.70;;
53040;SDS011;39326;42.650;23.248;2023-08-07T13:39:43;3.78;;;1.70;;
53040;SDS011;39326;42.650;23.248;2023-08-07T13:42:09;2.80;;;1.63;;
53040;SDS011;39326;42.650;23.248;2023-08-07T13:44:36;2.75;;;2.25;;
53040;SDS011;39326;42.650;23.248;2023-08-07T13:47:02;2.00;;;1.80;;
53040;SDS011;39326;42.650;23.248;2023-08-07T13:49:29;1.83;;;1.67;;
53040;SDS011;39326;42.650;23.248;2023-08-07T13:51:55;2.53;;;1.95;;
53040;SDS011;39326;42.650;23.248;2023-08-07T13:54:21;3.22;;;1.65;;
53040;SDS011;39326;42.650;23.248;2023-08-07T13:56:47;2.50;;;1.90;;
53040;SDS011;39326;42.650;23.248;2023-08-07T13:59:14;2.50;;;1.85;;
53040;SDS011;39326;42.650;23.248;2023-08-07T14:01:40;2.17;;;1.80;;
53040;SDS011;39326;42.650;23.248;2023-08-07T14:04:05;2.33;;;1.80;;
53040;SDS011;39326;42.650;23.248;2023-08-07T14:06:32;3.15;;;1.50;;
53040;SDS011;39326;42.650;23.248;2023-08-07T14:08:58;1.90;;;1.77;;
53040;SDS011;39326;42.650;23.248;2023-08-07T14:11:24;2.47;;;1.67;;
53040;SDS011;39326;42.650;23.248;2023-08-07T14:13:56;3.13;;;1.83;;
53040;SDS011;39326;42.650;23.248;2023-08-07T14:16:22;2.65;;;1.75;;
53040;SDS011;39326;42.650;23.248;2023-08-07T14:18:49;2.03;;;1.83;;
53040;SDS011;39326;42.650;23.248;2023-08-07T14:21:15;1.83;;;1.73;;
53040;SDS011;39326;42.650;23.248;2023-08-07T14:23:41;3.00;;;1.80;;
53040;SDS011;39326;42.650;23.248;2023-08-07T14:26:15;2.10;;;1.90;;
53040;SDS011;39326;42.650;23.248;2023-08-07T14:28:43;2.42;;;1.75;;
53040;SDS011;39326;42.650;23.248;2023-08-07T14:31:09;2.17;;;1.58;;
53040;SDS011;39326;42.650;23.248;2023-08-07T14:33:35;2.47;;;1.70;;
53040;SDS011;39326;42.650;23.248;2023-08-07T14:36:01;1.85;;;1.75;;
53040;SDS011;39326;42.650;23.248;2023-08-07T14:38:28;1.85;;;1.75;;